Tridens — PBVO — position and weather

sailwx.info

Track history (hours):
 
Tides and Currents Weather Stations Pressure Air Temp Water Temp Dewpoint Dewpoint Depression Visibility Wind Speed Wind Dir Waves Ship Positions

Oceanographic research ship Tridens (Netherlands)

Detailed information on ship capabilities available from University of Delaware's Ocean Information Center.

Last reported at 2015-May-09 04:19 UTC. Time now 2015-May-25 19:41 UTC.
Position N 59°17' E 004°42'.
Warning: this ship's position is 16 days out of date.

Length 74 m; beam 14 m.

Type: Ship. MMSI: 244033000.

Date/timePositionNaut miles runAvg speedWind from/ knotsBaromVisibWave heightAir tempDewpointWater temp
2015-May-09 04:19N 59°17' E 004°42'810.1
2015-May-09 03:33N 59°09' E 004°41'36212.4
2015-May-07 22:27N 53°07' E 004°33'1415.2
2015-May-07 21:33N 52°53' E 004°31'1514.9
2015-May-07 20:34N 52°38' E 004°30'1515.3
2015-May-07 19:33N 52°24' E 004°24'1615.7
2015-May-07 18:33N 52°09' E 004°16'3 2.6
2015-May-07 17:33N 52°06' E 004°16'0 0.0
2015-May-07 16:33N 52°06' E 004°16'0 0.0
2015-May-07 15:33N 52°06' E 004°16'3 2.6
2015-May-07 14:33N 52°08' E 004°14'3 2.6
2015-May-07 13:32N 52°06' E 004°16'0 0.0
2015-May-07 12:32N 52°06' E 004°16'0 0.0
2015-May-07 11:32N 52°06' E 004°16'0 0.0
2015-May-07 10:32N 52°06' E 004°16'0 0.0
2015-May-07 09:29N 52°06' E 004°16'0 0.0
2015-May-07 08:29N 52°06' E 004°16'0 0.0
2015-May-07 07:29N 52°06' E 004°16'  
2015-May-01 01:24N 52°06' E 004°16'7 8.9
2015-May-01 00:34N 52°02' E 004°06'1010.2
2015-Apr-30 23:33N 51°54' E 004°16'3 3.2
2015-Apr-30 22:32N 51°52' E 004°20'0 0.0
2015-Apr-30 21:29N 51°52' E 004°20'0 0.0
2015-Apr-30 20:32N 51°52' E 004°20'0 0.0
2015-Apr-30 19:32N 51°52' E 004°20'0 0.0
2015-Apr-30 18:32N 51°52' E 004°20'0 0.0
2015-Apr-30 17:29N 51°52' E 004°20'0 0.0
2015-Apr-30 16:33N 51°52' E 004°20'6 6.4
2015-Apr-30 15:33N 51°50' E 004°30'8 8.4
2015-Apr-30 14:33N 51°43' E 004°37'9 8.7
2015-Apr-30 13:33N 51°44' E 004°23'1413.6
2015-Apr-30 12:33N 51°49' E 004°03'1 0.5
2015-Apr-30 11:28N 51°49' E 004°02'0 0.2
2015-Apr-30 10:33N 51°49' E 004°03'0 0.0
2015-Apr-30 09:33N 51°49' E 004°03'0 0.0
2015-Apr-30 08:33N 51°49' E 004°03'0 0.0
2015-Apr-30 07:33N 51°49' E 004°03'0 0.0
2015-Apr-30 06:33N 51°49' E 004°03'0 0.0
2015-Apr-30 05:33N 51°49' E 004°03'0 0.0
2015-Apr-30 04:30N 51°49' E 004°03'0 0.0
2015-Apr-30 03:33N 51°49' E 004°03'0 0.0
2015-Apr-30 02:33N 51°49' E 004°03'0 0.0
2015-Apr-30 01:33N 51°49' E 004°03'0 0.0
2015-Apr-30 00:30N 51°49' E 004°03'0 0.0
2015-Apr-29 23:33N 51°49' E 004°03'0 0.0
2015-Apr-29 22:27N 51°49' E 004°03'0 0.0
2015-Apr-29 21:30N 51°49' E 004°03'0 0.0
2015-Apr-29 20:33N 51°49' E 004°03'0 0.0
2015-Apr-29 19:33N 51°49' E 004°03'0 0.0
2015-Apr-29 18:30N 51°49' E 004°03'0 0.0
2015-Apr-29 17:33N 51°49' E 004°03'0 0.0
2015-Apr-29 16:33N 51°49' E 004°03'0 0.0
2015-Apr-29 15:33N 51°49' E 004°03'0 0.0
2015-Apr-29 14:33N 51°49' E 004°03'0 0.0
2015-Apr-29 13:33N 51°49' E 004°03'0 0.0
2015-Apr-29 12:33N 51°49' E 004°03'0 0.0
2015-Apr-29 11:33N 51°49' E 004°03'0 0.0
2015-Apr-29 10:33N 51°49' E 004°03'0 0.0
2015-Apr-29 09:33N 51°49' E 004°03'0 0.0
2015-Apr-29 08:33N 51°49' E 004°03'0 0.0
2015-Apr-29 07:33N 51°49' E 004°03'0 0.0
2015-Apr-29 06:33N 51°49' E 004°03'0 0.0
2015-Apr-29 05:33N 51°49' E 004°03'0 0.0
2015-Apr-29 04:33N 51°49' E 004°03'  
Track history (hours):
 
Tides and Currents Weather Stations Pressure Air Temp Water Temp Dewpoint Dewpoint Depression Visibility Wind Speed Wind Dir Waves Ship Positions

Oceanographic research ship Tridens (Netherlands)

Detailed information on ship capabilities available from University of Delaware's Ocean Information Center.

Last reported at 2015-May-09 04:19 UTC. Time now 2015-May-25 19:41 UTC.
Position N 59°17' E 004°42'.
Warning: this ship's position is 16 days out of date.

Length 74 m; beam 14 m.

Type: Ship. MMSI: 244033000.

Date/timePositionNaut miles runAvg speedWind from/ knotsBaromVisibWave heightAir tempDewpointWater temp
2015-May-09 04:19N 59°17' E 004°42'810.1
2015-May-09 03:33N 59°09' E 004°41'36212.4
2015-May-07 22:27N 53°07' E 004°33'1415.2
2015-May-07 21:33N 52°53' E 004°31'1514.9
2015-May-07 20:34N 52°38' E 004°30'1515.3
2015-May-07 19:33N 52°24' E 004°24'1615.7
2015-May-07 18:33N 52°09' E 004°16'3 2.6
2015-May-07 17:33N 52°06' E 004°16'0 0.0
2015-May-07 16:33N 52°06' E 004°16'0 0.0
2015-May-07 15:33N 52°06' E 004°16'3 2.6
2015-May-07 14:33N 52°08' E 004°14'3 2.6
2015-May-07 13:32N 52°06' E 004°16'0 0.0
2015-May-07 12:32N 52°06' E 004°16'0 0.0
2015-May-07 11:32N 52°06' E 004°16'0 0.0
2015-May-07 10:32N 52°06' E 004°16'0 0.0
2015-May-07 09:29N 52°06' E 004°16'0 0.0
2015-May-07 08:29N 52°06' E 004°16'0 0.0
2015-May-07 07:29N 52°06' E 004°16'  
2015-May-01 01:24N 52°06' E 004°16'7 8.9
2015-May-01 00:34N 52°02' E 004°06'1010.2
2015-Apr-30 23:33N 51°54' E 004°16'3 3.2
2015-Apr-30 22:32N 51°52' E 004°20'0 0.0
2015-Apr-30 21:29N 51°52' E 004°20'0 0.0
2015-Apr-30 20:32N 51°52' E 004°20'0 0.0
2015-Apr-30 19:32N 51°52' E 004°20'0 0.0
2015-Apr-30 18:32N 51°52' E 004°20'0 0.0
2015-Apr-30 17:29N 51°52' E 004°20'0 0.0
2015-Apr-30 16:33N 51°52' E 004°20'6 6.4
2015-Apr-30 15:33N 51°50' E 004°30'8 8.4
2015-Apr-30 14:33N 51°43' E 004°37'9 8.7
2015-Apr-30 13:33N 51°44' E 004°23'1413.6
2015-Apr-30 12:33N 51°49' E 004°03'1 0.5
2015-Apr-30 11:28N 51°49' E 004°02'0 0.2
2015-Apr-30 10:33N 51°49' E 004°03'0 0.0
2015-Apr-30 09:33N 51°49' E 004°03'0 0.0
2015-Apr-30 08:33N 51°49' E 004°03'0 0.0
2015-Apr-30 07:33N 51°49' E 004°03'0 0.0
2015-Apr-30 06:33N 51°49' E 004°03'0 0.0
2015-Apr-30 05:33N 51°49' E 004°03'0 0.0
2015-Apr-30 04:30N 51°49' E 004°03'0 0.0
2015-Apr-30 03:33N 51°49' E 004°03'0 0.0
2015-Apr-30 02:33N 51°49' E 004°03'0 0.0
2015-Apr-30 01:33N 51°49' E 004°03'0 0.0
2015-Apr-30 00:30N 51°49' E 004°03'0 0.0
2015-Apr-29 23:33N 51°49' E 004°03'0 0.0
2015-Apr-29 22:27N 51°49' E 004°03'0 0.0
2015-Apr-29 21:30N 51°49' E 004°03'0 0.0
2015-Apr-29 20:33N 51°49' E 004°03'0 0.0
2015-Apr-29 19:33N 51°49' E 004°03'0 0.0
2015-Apr-29 18:30N 51°49' E 004°03'0 0.0
2015-Apr-29 17:33N 51°49' E 004°03'0 0.0
2015-Apr-29 16:33N 51°49' E 004°03'0 0.0
2015-Apr-29 15:33N 51°49' E 004°03'0 0.0
2015-Apr-29 14:33N 51°49' E 004°03'0 0.0
2015-Apr-29 13:33N 51°49' E 004°03'0 0.0
2015-Apr-29 12:33N 51°49' E 004°03'0 0.0
2015-Apr-29 11:33N 51°49' E 004°03'0 0.0
2015-Apr-29 10:33N 51°49' E 004°03'0 0.0
2015-Apr-29 09:33N 51°49' E 004°03'0 0.0
2015-Apr-29 08:33N 51°49' E 004°03'0 0.0
2015-Apr-29 07:33N 51°49' E 004°03'0 0.0
2015-Apr-29 06:33N 51°49' E 004°03'0 0.0
2015-Apr-29 05:33N 51°49' E 004°03'0 0.0
2015-Apr-29 04:33N 51°49' E 004°03'  

Dump ship's entire track history